Terminal Aerodrome Forecast
Issued by NWS

Home | Current Version | Previous Version | Text Only | Print | Product List | Glossary On
Versions: 1 2 3 4 5 6 7 8 9 10 11
852
FTUS43 KGRB 231723
TAFMTW
TAF
KMTW 231723Z 2318/2418 04010G18KT P6SM SCT020
      TEMPO 2318/2322 BKN018
     FM240500 06007KT P6SM SCT035
     FM240700 07006KT P6SM SCT150
     FM241400 14009G15KT P6SM SCT150=

USA.gov is the U.S. government's official web portal to all federal, state and local government web resources and services.